createdAt,value
2023-01-26T00:00:13.278Z,13.75
2023-01-26T00:04:15.184Z,15.18
2023-01-26T00:08:17.293Z,16.45
2023-01-26T00:12:19.214Z,15.00
2023-01-26T00:16:21.212Z,16.90
2023-01-26T00:20:23.089Z,14.98
2023-01-26T00:24:24.897Z,13.80
2023-01-26T00:28:28.423Z,16.70
2023-01-26T00:32:30.167Z,14.90
2023-01-26T00:36:31.999Z,16.70
2023-01-26T00:40:33.762Z,14.52
2023-01-26T00:44:39.426Z,15.80
2023-01-26T00:48:41.596Z,14.80
2023-01-26T00:52:43.374Z,13.57
2023-01-26T00:56:45.170Z,16.17
2023-01-26T01:00:49.186Z,15.25
2023-01-26T01:04:51.159Z,15.55
2023-01-26T01:08:54.000Z,15.73
2023-01-26T01:12:56.759Z,16.10
2023-01-26T01:16:59.011Z,15.63
2023-01-26T01:21:00.733Z,16.20
2023-01-26T01:25:02.882Z,14.85
2023-01-26T01:29:05.552Z,17.42
2023-01-26T01:33:07.390Z,18.25
2023-01-26T01:37:09.313Z,16.98
2023-01-26T01:41:12.062Z,17.75
2023-01-26T01:45:43.340Z,18.02
2023-01-26T01:49:48.080Z,16.92
2023-01-26T01:53:52.280Z,15.35
2023-01-26T01:58:00.326Z,18.73
2023-01-26T02:02:02.695Z,16.60
2023-01-26T02:06:13.608Z,15.88
2023-01-26T02:10:19.941Z,16.35
2023-01-26T02:14:22.254Z,16.60
2023-01-26T02:18:24.042Z,18.35
2023-01-26T02:22:41.647Z,17.38
2023-01-26T02:26:43.534Z,17.88
2023-01-26T02:30:45.985Z,16.25
2023-01-26T02:34:47.798Z,16.15
2023-01-26T02:39:25.191Z,15.02
2023-01-26T02:43:28.396Z,16.88
2023-01-26T02:47:30.145Z,15.25
2023-01-26T02:51:32.542Z,15.10
2023-01-26T02:55:34.311Z,15.25
2023-01-26T02:59:36.086Z,13.55
2023-01-26T03:03:42.210Z,14.15
2023-01-26T03:07:44.131Z,14.35
2023-01-26T03:11:46.467Z,15.20
2023-01-26T03:15:52.796Z,15.38
2023-01-26T03:24:35.793Z,13.13
2023-01-26T03:28:39.965Z,15.50
2023-01-26T03:32:42.036Z,13.95
2023-01-26T03:36:48.576Z,14.35
2023-01-26T03:41:11.023Z,13.88
2023-01-26T03:45:31.445Z,15.57
2023-01-26T03:49:53.062Z,15.38
2023-01-26T03:54:13.499Z,13.82
2023-01-26T03:58:15.340Z,15.02
2023-01-26T04:02:36.383Z,15.02
2023-01-26T04:07:00.724Z,14.57
2023-01-26T04:11:02.797Z,14.93
2023-01-26T04:15:24.211Z,16.05
2023-01-26T04:19:44.732Z,14.57
2023-01-26T04:23:46.666Z,14.27
2023-01-26T04:27:48.828Z,14.68
2023-01-26T04:31:51.225Z,14.35
2023-01-26T04:35:55.611Z,13.80
2023-01-26T04:39:57.635Z,14.77
2023-01-26T04:44:00.155Z,15.63
2023-01-26T04:48:01.990Z,14.20
2023-01-26T04:52:04.038Z,14.75
2023-01-26T04:56:06.547Z,15.75
2023-01-26T05:00:10.972Z,14.65
2023-01-26T05:04:13.345Z,15.60
2023-01-26T05:08:20.659Z,15.38
2023-01-26T05:12:35.424Z,14.93
2023-01-26T05:16:56.089Z,16.00
2023-01-26T05:21:16.527Z,14.80
2023-01-26T05:25:23.851Z,14.27
2023-01-26T05:29:35.876Z,15.80
2023-01-26T05:33:37.563Z,14.45
2023-01-26T05:37:42.442Z,14.32
2023-01-26T05:41:45.289Z,15.10
2023-01-26T05:45:52.838Z,13.17
2023-01-26T05:49:56.744Z,15.10
2023-01-26T05:54:02.991Z,13.73
2023-01-26T05:58:04.913Z,12.95
2023-01-26T06:02:06.875Z,12.85
2023-01-26T06:06:14.177Z,14.30
2023-01-26T06:10:48.166Z,14.25
2023-01-26T06:14:59.150Z,15.48
2023-01-26T06:19:13.996Z,12.63
2023-01-26T06:23:18.585Z,13.38
2023-01-26T06:27:21.769Z,11.88
2023-01-26T06:31:25.810Z,10.95
2023-01-26T06:35:28.355Z,12.30
2023-01-26T06:39:32.984Z,10.68
2023-01-26T06:43:36.309Z,9.75
2023-01-26T06:47:38.551Z,10.05
2023-01-26T06:51:57.376Z,10.05
2023-01-26T06:56:12.412Z,7.70
2023-01-26T07:00:52.910Z,7.50
2023-01-26T07:05:05.678Z,6.75
2023-01-26T07:09:07.620Z,6.28
2023-01-26T07:13:09.575Z,5.03
2023-01-26T07:17:11.300Z,5.50
2023-01-26T07:21:16.097Z,4.38
2023-01-26T07:25:19.040Z,4.53
2023-01-26T07:29:20.794Z,3.08
2023-01-26T07:33:22.567Z,3.63
2023-01-26T07:37:28.167Z,2.90
2023-01-26T07:41:29.920Z,3.45
2023-01-26T07:45:33.107Z,2.88
2023-01-26T07:49:34.815Z,3.15
2023-01-26T07:53:39.719Z,4.03
2023-01-26T07:57:41.596Z,4.85
2023-01-26T08:01:43.347Z,2.95
2023-01-26T08:05:45.744Z,2.63
2023-01-26T08:09:47.593Z,3.55
2023-01-26T08:13:49.486Z,3.30
2023-01-26T08:17:53.545Z,4.13
2023-01-26T08:21:57.744Z,4.22
2023-01-26T08:26:04.494Z,3.22
2023-01-26T08:30:06.906Z,2.90
2023-01-26T08:34:08.667Z,3.17
2023-01-26T08:38:10.574Z,2.97
2023-01-26T08:42:12.332Z,3.47
2023-01-26T08:46:15.086Z,3.03
2023-01-26T08:50:17.263Z,3.00
2023-01-26T08:54:19.123Z,3.30
2023-01-26T08:58:20.997Z,3.42
2023-01-26T09:02:22.788Z,3.67
2023-01-26T09:06:25.339Z,3.45
2023-01-26T09:10:27.328Z,3.60
2023-01-26T09:14:29.077Z,3.22
2023-01-26T09:18:30.779Z,6.97
2023-01-26T09:22:32.946Z,3.38
2023-01-26T09:26:34.699Z,3.17
2023-01-26T09:30:36.474Z,3.40
2023-01-26T09:34:38.301Z,3.30
2023-01-26T09:38:40.482Z,3.88
2023-01-26T09:42:44.901Z,4.13
2023-01-26T09:47:02.738Z,2.95
2023-01-26T09:51:36.557Z,3.63
2023-01-26T09:55:40.818Z,2.40
2023-01-26T09:59:51.177Z,2.97
2023-01-26T10:04:06.140Z,3.03
2023-01-26T10:08:18.934Z,4.45
2023-01-26T10:12:28.219Z,3.13
2023-01-26T10:16:35.367Z,2.95
2023-01-26T10:20:45.477Z,3.50
2023-01-26T10:24:50.990Z,3.20
2023-01-26T10:28:53.147Z,3.38
2023-01-26T10:32:54.927Z,3.35
2023-01-26T10:37:12.122Z,3.58
2023-01-26T10:41:23.702Z,3.60
2023-01-26T10:45:31.596Z,3.40
2023-01-26T10:49:33.410Z,2.90
2023-01-26T10:53:35.134Z,3.17
2023-01-26T10:57:42.041Z,3.63
2023-01-26T11:01:56.219Z,3.22
2023-01-26T11:06:15.275Z,2.55
2023-01-26T11:10:37.179Z,3.28
2023-01-26T11:14:38.966Z,2.08
2023-01-26T11:19:00.389Z,3.05
2023-01-26T11:23:22.661Z,2.75
2023-01-26T11:27:36.428Z,2.58
2023-01-26T11:32:16.394Z,2.95
2023-01-26T11:36:53.974Z,2.20
2023-01-26T11:41:28.115Z,1.73
2023-01-26T11:46:01.000Z,2.33
2023-01-26T11:50:24.839Z,2.10
2023-01-26T11:54:54.282Z,3.30
2023-01-26T11:59:01.743Z,3.60
2023-01-26T12:03:06.381Z,1.93
2023-01-26T12:07:16.875Z,3.03
2023-01-26T12:11:42.831Z,2.42
2023-01-26T12:15:52.434Z,2.60
2023-01-26T12:20:21.351Z,2.45
2023-01-26T12:25:08.173Z,2.03
2023-01-26T12:29:17.338Z,2.13
2023-01-26T12:33:19.256Z,3.10
2023-01-26T12:37:30.030Z,3.42
2023-01-26T12:42:01.173Z,3.25
2023-01-26T12:46:05.156Z,3.03
2023-01-26T12:50:26.504Z,3.60
2023-01-26T12:54:47.299Z,2.42
2023-01-26T12:58:51.406Z,2.45
2023-01-26T13:02:59.511Z,2.10
2023-01-26T13:07:04.476Z,0.80
2023-01-26T13:11:08.142Z,1.13
2023-01-26T13:15:14.714Z,1.15
2023-01-26T13:19:36.175Z,1.00
2023-01-26T13:23:44.907Z,1.55
2023-01-26T13:27:58.979Z,2.00
2023-01-26T13:32:22.643Z,1.52
2023-01-26T13:36:24.810Z,1.92
2023-01-26T13:40:34.732Z,1.65
2023-01-26T13:44:41.559Z,2.75
2023-01-26T13:48:50.888Z,2.10
2023-01-26T13:52:52.699Z,1.45
2023-01-26T13:57:06.448Z,2.00
2023-01-26T14:01:13.805Z,1.63
2023-01-26T14:05:22.773Z,1.47
2023-01-26T14:09:28.159Z,1.63
2023-01-26T14:13:37.283Z,1.60
2023-01-26T14:17:50.205Z,0.98
2023-01-26T14:21:58.325Z,1.73
2023-01-26T14:26:00.075Z,1.40
2023-01-26T14:30:05.214Z,1.23
2023-01-26T14:34:10.652Z,1.63
2023-01-26T14:38:12.369Z,2.45
2023-01-26T14:42:19.481Z,2.08
2023-01-26T14:46:36.481Z,2.90
2023-01-26T14:50:40.129Z,1.83
2023-01-26T14:54:44.788Z,1.65
2023-01-26T14:58:51.552Z,2.42
2023-01-26T15:02:56.212Z,1.80
2023-01-26T15:07:32.542Z,2.03
2023-01-26T15:11:58.333Z,1.90
2023-01-26T15:16:16.376Z,2.15
2023-01-26T15:20:18.132Z,1.30
2023-01-26T15:24:19.969Z,1.60
2023-01-26T15:28:26.107Z,2.92
2023-01-26T15:32:32.800Z,1.45
2023-01-26T15:36:46.542Z,1.52
2023-01-26T15:40:48.304Z,1.02
2023-01-26T15:44:50.300Z,1.40
2023-01-26T15:48:52.136Z,1.42
2023-01-26T15:52:53.944Z,1.10
2023-01-26T15:56:55.632Z,1.38
2023-01-26T16:00:58.271Z,1.25
2023-01-26T16:05:00.051Z,1.30
2023-01-26T16:09:02.081Z,1.80
2023-01-26T16:13:18.134Z,1.50
2023-01-26T16:17:19.883Z,2.22
2023-01-26T16:21:29.612Z,2.97
2023-01-26T16:25:32.426Z,1.90
2023-01-26T16:29:34.345Z,2.35
2023-01-26T16:33:36.121Z,1.92
2023-01-26T16:37:37.869Z,1.95
2023-01-26T16:41:40.219Z,1.92
2023-01-26T16:45:41.920Z,1.50
2023-01-26T16:49:43.659Z,1.80
2023-01-26T16:53:45.995Z,2.33
2023-01-26T16:57:50.036Z,2.15
2023-01-26T17:01:52.066Z,1.65
2023-01-26T17:05:56.026Z,1.63
2023-01-26T17:09:57.777Z,2.80
2023-01-26T17:13:59.541Z,1.90
2023-01-26T17:18:01.492Z,2.72
2023-01-26T17:22:03.655Z,1.70
2023-01-26T17:26:05.450Z,1.55
2023-01-26T17:30:07.687Z,1.60
2023-01-26T17:34:09.759Z,1.23
2023-01-26T17:38:11.558Z,1.42
2023-01-26T17:42:13.687Z,1.60
2023-01-26T17:46:17.896Z,1.80
2023-01-26T17:50:19.767Z,1.55
2023-01-26T17:54:21.666Z,2.40
2023-01-26T17:58:23.387Z,1.58
2023-01-26T18:02:25.246Z,1.70
2023-01-26T18:06:27.015Z,1.58
2023-01-26T18:10:31.652Z,2.13
2023-01-26T18:14:33.354Z,1.60
2023-01-26T18:18:35.643Z,2.00
2023-01-26T18:22:37.388Z,2.10
2023-01-26T18:26:40.037Z,2.42
2023-01-26T18:30:42.294Z,2.47
2023-01-26T18:34:44.070Z,1.77
2023-01-26T18:38:51.958Z,1.92
2023-01-26T18:42:55.199Z,2.08
2023-01-26T18:46:57.166Z,2.10
2023-01-26T18:50:58.927Z,1.77
2023-01-26T18:55:00.635Z,2.00
2023-01-26T18:59:02.607Z,1.80
2023-01-26T19:03:04.688Z,2.30
2023-01-26T19:07:10.577Z,2.00
2023-01-26T19:11:12.505Z,1.73
2023-01-26T19:15:14.410Z,1.88
2023-01-26T19:19:16.173Z,1.90
2023-01-26T19:23:17.914Z,1.50
2023-01-26T19:27:19.972Z,2.28
2023-01-26T19:31:22.208Z,2.05
2023-01-26T19:35:24.067Z,2.38
2023-01-26T19:39:25.845Z,2.20
2023-01-26T19:43:27.871Z,2.13
2023-01-26T19:47:29.652Z,1.90
2023-01-26T19:51:31.503Z,2.75
2023-01-26T19:55:33.572Z,2.85
2023-01-26T19:59:35.333Z,2.22
2023-01-26T20:03:37.535Z,1.83
2023-01-26T20:07:39.325Z,2.00
2023-01-26T20:11:41.083Z,2.67
2023-01-26T20:15:43.190Z,2.60
2023-01-26T20:19:45.534Z,1.67
2023-01-26T20:23:54.385Z,2.55
2023-01-26T20:27:57.314Z,2.70
2023-01-26T20:31:59.427Z,2.80
2023-01-26T20:36:06.097Z,2.35
2023-01-26T20:40:08.357Z,2.45
2023-01-26T20:44:10.600Z,3.13
2023-01-26T20:48:12.388Z,2.35
2023-01-26T20:52:14.125Z,2.45
2023-01-26T20:56:17.515Z,2.83
2023-01-26T21:00:19.870Z,2.50
2023-01-26T21:04:21.701Z,2.53
2023-01-26T21:08:23.426Z,3.10
2023-01-26T21:12:25.267Z,2.50
2023-01-26T21:16:27.507Z,2.88
2023-01-26T21:20:29.256Z,3.10
2023-01-26T21:24:31.108Z,2.47
2023-01-26T21:28:33.609Z,2.97
2023-01-26T21:32:35.375Z,2.72
2023-01-26T21:36:37.309Z,2.78
2023-01-26T21:40:39.080Z,2.40
2023-01-26T21:44:59.433Z,2.47
2023-01-26T21:49:01.561Z,2.63
2023-01-26T21:53:03.308Z,3.17
2023-01-26T21:57:26.796Z,2.88
2023-01-26T22:02:01.393Z,3.03
2023-01-26T22:06:04.387Z,3.40
2023-01-26T22:10:06.437Z,3.10
2023-01-26T22:14:12.994Z,2.58
2023-01-26T22:18:14.853Z,3.05
2023-01-26T22:22:16.660Z,2.50
2023-01-26T22:26:20.284Z,1.98
2023-01-26T22:30:21.982Z,3.03
2023-01-26T22:34:23.790Z,2.58
2023-01-26T22:38:25.506Z,2.22
2023-01-26T22:42:27.220Z,2.92
2023-01-26T22:46:30.677Z,2.47
2023-01-26T22:50:32.677Z,2.72
2023-01-26T22:54:34.406Z,2.63
2023-01-26T22:58:47.643Z,3.00
2023-01-26T23:02:57.434Z,2.17
2023-01-26T23:06:59.448Z,2.58
2023-01-26T23:11:16.130Z,2.35
2023-01-26T23:15:17.858Z,2.38
2023-01-26T23:19:19.612Z,2.58
2023-01-26T23:23:22.691Z,2.35
2023-01-26T23:27:24.357Z,2.90
2023-01-26T23:31:26.250Z,3.55
2023-01-26T23:35:28.177Z,2.42
2023-01-26T23:39:29.919Z,2.58
2023-01-26T23:43:32.414Z,2.88
2023-01-26T23:47:34.268Z,2.70
2023-01-26T23:51:36.298Z,3.00
2023-01-26T23:55:43.567Z,2.40
2023-01-26T23:59:45.310Z,2.25
